sensor_id;sensor_type;location;lat;lon;timestamp;P1;durP1;ratioP1;P2;durP2;ratioP2
67941;SDS011;54731;42.600;23.476;2023-03-08T00:01:14;6.47;;;3.10;;
67941;SDS011;54731;42.600;23.476;2023-03-08T00:03:42;6.68;;;1.40;;
67941;SDS011;54731;42.600;23.476;2023-03-08T00:06:09;5.43;;;1.55;;
67941;SDS011;54731;42.600;23.476;2023-03-08T00:08:36;4.63;;;1.60;;
67941;SDS011;54731;42.600;23.476;2023-03-08T00:11:05;2.73;;;1.50;;
67941;SDS011;54731;42.600;23.476;2023-03-08T00:13:36;3.28;;;1.60;;
67941;SDS011;54731;42.600;23.476;2023-03-08T00:16:01;3.40;;;1.80;;
67941;SDS011;54731;42.600;23.476;2023-03-08T00:18:28;4.55;;;1.75;;
67941;SDS011;54731;42.600;23.476;2023-03-08T00:21:03;2.60;;;1.70;;
67941;SDS011;54731;42.600;23.476;2023-03-08T00:23:30;3.80;;;1.65;;
67941;SDS011;54731;42.600;23.476;2023-03-08T00:25:56;3.00;;;1.63;;
67941;SDS011;54731;42.600;23.476;2023-03-08T00:28:21;4.72;;;1.90;;
67941;SDS011;54731;42.600;23.476;2023-03-08T00:30:54;3.60;;;1.65;;
67941;SDS011;54731;42.600;23.476;2023-03-08T00:33:24;3.20;;;1.67;;
67941;SDS011;54731;42.600;23.476;2023-03-08T00:35:54;3.45;;;1.90;;
67941;SDS011;54731;42.600;23.476;2023-03-08T00:38:20;3.63;;;1.63;;
67941;SDS011;54731;42.600;23.476;2023-03-08T00:40:46;5.97;;;1.80;;
67941;SDS011;54731;42.600;23.476;2023-03-08T00:43:11;4.07;;;1.80;;
67941;SDS011;54731;42.600;23.476;2023-03-08T00:45:36;3.33;;;1.70;;
67941;SDS011;54731;42.600;23.476;2023-03-08T00:48:02;3.17;;;1.73;;
67941;SDS011;54731;42.600;23.476;2023-03-08T00:50:27;3.28;;;2.05;;
67941;SDS011;54731;42.600;23.476;2023-03-08T00:52:52;4.33;;;1.73;;
67941;SDS011;54731;42.600;23.476;2023-03-08T00:55:17;3.00;;;1.10;;
67941;SDS011;54731;42.600;23.476;2023-03-08T00:57:43;3.77;;;1.53;;
67941;SDS011;54731;42.600;23.476;2023-03-08T01:00:08;4.27;;;1.87;;
67941;SDS011;54731;42.600;23.476;2023-03-08T01:02:34;86.45;;;20.73;;
67941;SDS011;54731;42.600;23.476;2023-03-08T01:04:59;15.63;;;4.47;;
67941;SDS011;54731;42.600;23.476;2023-03-08T01:07:25;9.00;;;3.73;;
67941;SDS011;54731;42.600;23.476;2023-03-08T01:09:52;5.43;;;2.33;;
67941;SDS011;54731;42.600;23.476;2023-03-08T01:12:18;4.47;;;2.40;;
67941;SDS011;54731;42.600;23.476;2023-03-08T01:14:43;8.60;;;2.20;;
67941;SDS011;54731;42.600;23.476;2023-03-08T01:17:09;6.63;;;2.50;;
67941;SDS011;54731;42.600;23.476;2023-03-08T01:19:34;4.53;;;2.00;;
67941;SDS011;54731;42.600;23.476;2023-03-08T01:22:00;5.40;;;2.45;;
67941;SDS011;54731;42.600;23.476;2023-03-08T01:24:25;8.33;;;3.17;;
67941;SDS011;54731;42.600;23.476;2023-03-08T01:26:51;5.43;;;2.37;;
67941;SDS011;54731;42.600;23.476;2023-03-08T01:29:16;9.43;;;3.40;;
67941;SDS011;54731;42.600;23.476;2023-03-08T01:31:41;9.67;;;3.80;;
67941;SDS011;54731;42.600;23.476;2023-03-08T01:34:08;8.73;;;3.97;;
67941;SDS011;54731;42.600;23.476;2023-03-08T01:36:33;11.95;;;4.63;;
67941;SDS011;54731;42.600;23.476;2023-03-08T01:38:59;14.20;;;5.53;;
67941;SDS011;54731;42.600;23.476;2023-03-08T01:41:26;13.55;;;4.72;;
67941;SDS011;54731;42.600;23.476;2023-03-08T01:43:52;10.38;;;3.75;;
67941;SDS011;54731;42.600;23.476;2023-03-08T01:51:42;11.00;;;2.90;;
67941;SDS011;54731;42.600;23.476;2023-03-08T01:57:02;7.43;;;2.72;;
67941;SDS011;54731;42.600;23.476;2023-03-08T01:59:32;4.38;;;2.03;;
67941;SDS011;54731;42.600;23.476;2023-03-08T02:01:58;8.60;;;2.55;;
67941;SDS011;54731;42.600;23.476;2023-03-08T02:04:24;5.63;;;2.17;;
67941;SDS011;54731;42.600;23.476;2023-03-08T02:06:50;5.03;;;1.63;;
67941;SDS011;54731;42.600;23.476;2023-03-08T02:09:16;4.47;;;1.75;;
67941;SDS011;54731;42.600;23.476;2023-03-08T02:11:41;9.43;;;1.30;;
67941;SDS011;54731;42.600;23.476;2023-03-08T02:14:07;8.57;;;2.80;;
67941;SDS011;54731;42.600;23.476;2023-03-08T02:16:32;6.73;;;2.50;;
67941;SDS011;54731;42.600;23.476;2023-03-08T02:18:59;5.50;;;1.83;;
67941;SDS011;54731;42.600;23.476;2023-03-08T02:21:26;3.47;;;1.75;;
67941;SDS011;54731;42.600;23.476;2023-03-08T02:23:53;4.38;;;1.92;;
67941;SDS011;54731;42.600;23.476;2023-03-08T02:26:19;6.15;;;1.95;;
67941;SDS011;54731;42.600;23.476;2023-03-08T02:28:45;2.95;;;1.73;;
67941;SDS011;54731;42.600;23.476;2023-03-08T02:31:11;8.87;;;3.57;;
67941;SDS011;54731;42.600;23.476;2023-03-08T02:33:37;8.77;;;2.80;;
67941;SDS011;54731;42.600;23.476;2023-03-08T02:36:03;4.70;;;1.97;;
67941;SDS011;54731;42.600;23.476;2023-03-08T02:38:29;6.45;;;2.72;;
67941;SDS011;54731;42.600;23.476;2023-03-08T02:40:54;7.50;;;2.40;;
67941;SDS011;54731;42.600;23.476;2023-03-08T02:43:20;7.68;;;2.55;;
67941;SDS011;54731;42.600;23.476;2023-03-08T02:45:45;5.83;;;2.17;;
67941;SDS011;54731;42.600;23.476;2023-03-08T02:48:11;4.33;;;2.20;;
67941;SDS011;54731;42.600;23.476;2023-03-08T02:50:37;6.30;;;2.65;;
67941;SDS011;54731;42.600;23.476;2023-03-08T02:53:03;4.87;;;2.30;;
67941;SDS011;54731;42.600;23.476;2023-03-08T02:55:29;8.93;;;2.47;;
67941;SDS011;54731;42.600;23.476;2023-03-08T02:57:54;7.20;;;2.40;;
67941;SDS011;54731;42.600;23.476;2023-03-08T03:00:19;7.90;;;2.53;;
67941;SDS011;54731;42.600;23.476;2023-03-08T03:02:45;5.03;;;2.60;;
67941;SDS011;54731;42.600;23.476;2023-03-08T03:05:10;6.10;;;2.87;;
67941;SDS011;54731;42.600;23.476;2023-03-08T03:07:37;7.43;;;3.10;;
67941;SDS011;54731;42.600;23.476;2023-03-08T03:10:04;6.55;;;2.58;;
67941;SDS011;54731;42.600;23.476;2023-03-08T03:12:30;7.13;;;3.13;;
67941;SDS011;54731;42.600;23.476;2023-03-08T03:14:55;4.57;;;2.13;;
67941;SDS011;54731;42.600;23.476;2023-03-08T03:17:21;6.50;;;2.65;;
67941;SDS011;54731;42.600;23.476;2023-03-08T03:19:46;5.03;;;2.63;;
67941;SDS011;54731;42.600;23.476;2023-03-08T03:22:11;5.30;;;2.27;;
67941;SDS011;54731;42.600;23.476;2023-03-08T03:24:37;6.60;;;2.90;;
67941;SDS011;54731;42.600;23.476;2023-03-08T03:27:02;7.13;;;2.60;;
67941;SDS011;54731;42.600;23.476;2023-03-08T03:29:28;7.18;;;2.40;;
67941;SDS011;54731;42.600;23.476;2023-03-08T03:31:53;9.43;;;2.90;;
67941;SDS011;54731;42.600;23.476;2023-03-08T03:34:18;4.97;;;2.70;;
67941;SDS011;54731;42.600;23.476;2023-03-08T03:36:44;7.07;;;2.90;;
67941;SDS011;54731;42.600;23.476;2023-03-08T03:39:09;4.27;;;2.20;;
67941;SDS011;54731;42.600;23.476;2023-03-08T03:41:34;11.93;;;3.10;;
67941;SDS011;54731;42.600;23.476;2023-03-08T03:43:59;12.13;;;2.77;;
67941;SDS011;54731;42.600;23.476;2023-03-08T03:46:25;5.97;;;2.37;;
67941;SDS011;54731;42.600;23.476;2023-03-08T03:48:50;8.60;;;3.10;;
67941;SDS011;54731;42.600;23.476;2023-03-08T03:51:17;7.30;;;3.53;;
67941;SDS011;54731;42.600;23.476;2023-03-08T03:53:43;7.90;;;3.53;;
67941;SDS011;54731;42.600;23.476;2023-03-08T03:56:11;5.47;;;2.65;;
67941;SDS011;54731;42.600;23.476;2023-03-08T03:58:40;7.38;;;3.20;;
67941;SDS011;54731;42.600;23.476;2023-03-08T04:01:10;9.00;;;3.15;;
67941;SDS011;54731;42.600;23.476;2023-03-08T04:03:40;4.78;;;2.20;;
67941;SDS011;54731;42.600;23.476;2023-03-08T04:06:06;4.17;;;2.13;;
67941;SDS011;54731;42.600;23.476;2023-03-08T04:08:32;4.78;;;2.25;;
67941;SDS011;54731;42.600;23.476;2023-03-08T04:11:00;7.00;;;2.57;;
67941;SDS011;54731;42.600;23.476;2023-03-08T04:13:25;4.32;;;1.92;;
67941;SDS011;54731;42.600;23.476;2023-03-08T04:15:51;5.53;;;2.13;;
67941;SDS011;54731;42.600;23.476;2023-03-08T04:18:16;3.57;;;1.80;;
67941;SDS011;54731;42.600;23.476;2023-03-08T04:20:42;7.47;;;2.50;;
67941;SDS011;54731;42.600;23.476;2023-03-08T04:23:08;5.90;;;2.15;;
67941;SDS011;54731;42.600;23.476;2023-03-08T04:25:33;3.20;;;1.80;;
67941;SDS011;54731;42.600;23.476;2023-03-08T04:27:59;5.73;;;1.80;;
67941;SDS011;54731;42.600;23.476;2023-03-08T04:30:24;6.10;;;1.88;;
67941;SDS011;54731;42.600;23.476;2023-03-08T04:32:49;5.13;;;2.13;;
67941;SDS011;54731;42.600;23.476;2023-03-08T04:35:15;4.60;;;2.87;;
67941;SDS011;54731;42.600;23.476;2023-03-08T04:37:40;6.07;;;2.83;;
67941;SDS011;54731;42.600;23.476;2023-03-08T04:40:06;6.17;;;2.40;;
67941;SDS011;54731;42.600;23.476;2023-03-08T04:42:32;7.18;;;2.80;;
67941;SDS011;54731;42.600;23.476;2023-03-08T04:44:57;9.07;;;4.47;;
67941;SDS011;54731;42.600;23.476;2023-03-08T04:47:22;7.60;;;3.50;;
67941;SDS011;54731;42.600;23.476;2023-03-08T04:49:48;13.03;;;5.83;;
67941;SDS011;54731;42.600;23.476;2023-03-08T04:52:13;14.80;;;7.18;;
67941;SDS011;54731;42.600;23.476;2023-03-08T04:54:38;30.02;;;9.85;;
67941;SDS011;54731;42.600;23.476;2023-03-08T04:57:04;21.63;;;7.67;;
67941;SDS011;54731;42.600;23.476;2023-03-08T04:59:29;12.03;;;4.67;;
67941;SDS011;54731;42.600;23.476;2023-03-08T05:01:54;16.40;;;7.23;;
67941;SDS011;54731;42.600;23.476;2023-03-08T05:04:19;18.57;;;7.23;;
67941;SDS011;54731;42.600;23.476;2023-03-08T05:06:45;9.80;;;3.90;;
67941;SDS011;54731;42.600;23.476;2023-03-08T05:09:10;7.47;;;3.60;;
67941;SDS011;54731;42.600;23.476;2023-03-08T05:11:35;6.57;;;2.93;;
67941;SDS011;54731;42.600;23.476;2023-03-08T05:14:01;9.30;;;2.90;;
67941;SDS011;54731;42.600;23.476;2023-03-08T05:16:26;5.60;;;3.28;;
67941;SDS011;54731;42.600;23.476;2023-03-08T05:18:51;11.30;;;2.97;;
67941;SDS011;54731;42.600;23.476;2023-03-08T05:21:18;6.97;;;2.53;;
67941;SDS011;54731;42.600;23.476;2023-03-08T05:23:45;8.13;;;3.13;;
67941;SDS011;54731;42.600;23.476;2023-03-08T05:26:12;10.82;;;2.88;;
67941;SDS011;54731;42.600;23.476;2023-03-08T05:28:39;14.73;;;5.23;;
67941;SDS011;54731;42.600;23.476;2023-03-08T05:33:33;11.02;;;4.80;;
67941;SDS011;54731;42.600;23.476;2023-03-08T05:35:59;10.82;;;3.38;;
67941;SDS011;54731;42.600;23.476;2023-03-08T05:38:24;7.23;;;3.27;;
67941;SDS011;54731;42.600;23.476;2023-03-08T05:40:50;9.10;;;3.78;;
67941;SDS011;54731;42.600;23.476;2023-03-08T05:43:16;11.73;;;5.43;;
67941;SDS011;54731;42.600;23.476;2023-03-08T05:45:41;21.38;;;7.85;;
67941;SDS011;54731;42.600;23.476;2023-03-08T05:48:07;10.90;;;3.93;;
67941;SDS011;54731;42.600;23.476;2023-03-08T05:50:32;7.67;;;3.43;;
67941;SDS011;54731;42.600;23.476;2023-03-08T05:52:58;7.15;;;3.38;;
67941;SDS011;54731;42.600;23.476;2023-03-08T05:55:23;12.67;;;4.60;;
67941;SDS011;54731;42.600;23.476;2023-03-08T05:57:48;14.27;;;7.43;;
67941;SDS011;54731;42.600;23.476;2023-03-08T06:00:14;11.43;;;5.07;;
67941;SDS011;54731;42.600;23.476;2023-03-08T06:02:40;5.45;;;3.10;;
67941;SDS011;54731;42.600;23.476;2023-03-08T06:05:06;6.73;;;3.50;;
67941;SDS011;54731;42.600;23.476;2023-03-08T06:07:31;9.70;;;3.83;;
67941;SDS011;54731;42.600;23.476;2023-03-08T06:09:56;35.92;;;14.48;;
67941;SDS011;54731;42.600;23.476;2023-03-08T06:12:22;12.23;;;5.47;;
67941;SDS011;54731;42.600;23.476;2023-03-08T06:14:47;17.70;;;9.17;;
67941;SDS011;54731;42.600;23.476;2023-03-08T06:17:13;21.17;;;9.60;;
67941;SDS011;54731;42.600;23.476;2023-03-08T06:19:38;25.73;;;10.30;;
67941;SDS011;54731;42.600;23.476;2023-03-08T06:22:03;28.50;;;11.50;;
67941;SDS011;54731;42.600;23.476;2023-03-08T06:24:29;20.52;;;9.65;;
67941;SDS011;54731;42.600;23.476;2023-03-08T06:26:54;21.05;;;8.23;;
67941;SDS011;54731;42.600;23.476;2023-03-08T06:29:20;16.90;;;7.23;;
67941;SDS011;54731;42.600;23.476;2023-03-08T06:31:45;19.73;;;7.78;;
67941;SDS011;54731;42.600;23.476;2023-03-08T06:34:11;12.53;;;5.97;;
67941;SDS011;54731;42.600;23.476;2023-03-08T06:36:36;21.40;;;7.43;;
67941;SDS011;54731;42.600;23.476;2023-03-08T06:39:02;24.33;;;8.45;;
67941;SDS011;54731;42.600;23.476;2023-03-08T06:41:27;10.88;;;5.13;;
67941;SDS011;54731;42.600;23.476;2023-03-08T06:43:53;11.97;;;4.67;;
67941;SDS011;54731;42.600;23.476;2023-03-08T06:46:19;14.67;;;4.17;;
67941;SDS011;54731;42.600;23.476;2023-03-08T06:48:46;12.80;;;5.13;;
67941;SDS011;54731;42.600;23.476;2023-03-08T06:51:13;9.65;;;5.13;;
67941;SDS011;54731;42.600;23.476;2023-03-08T06:53:39;13.38;;;5.70;;
67941;SDS011;54731;42.600;23.476;2023-03-08T06:56:05;24.80;;;9.23;;
67941;SDS011;54731;42.600;23.476;2023-03-08T06:58:32;17.15;;;6.82;;
67941;SDS011;54731;42.600;23.476;2023-03-08T07:00:59;22.20;;;9.25;;
67941;SDS011;54731;42.600;23.476;2023-03-08T07:03:24;25.03;;;10.90;;
67941;SDS011;54731;42.600;23.476;2023-03-08T07:05:50;17.05;;;6.63;;
67941;SDS011;54731;42.600;23.476;2023-03-08T07:08:16;44.17;;;13.50;;
67941;SDS011;54731;42.600;23.476;2023-03-08T07:10:41;24.47;;;8.47;;
67941;SDS011;54731;42.600;23.476;2023-03-08T07:13:07;11.10;;;5.13;;
67941;SDS011;54731;42.600;23.476;2023-03-08T07:15:32;14.20;;;4.20;;
67941;SDS011;54731;42.600;23.476;2023-03-08T07:17:58;10.50;;;3.67;;
67941;SDS011;54731;42.600;23.476;2023-03-08T07:20:24;10.13;;;3.60;;
67941;SDS011;54731;42.600;23.476;2023-03-08T07:22:50;12.32;;;3.50;;
67941;SDS011;54731;42.600;23.476;2023-03-08T07:25:17;10.30;;;3.90;;
67941;SDS011;54731;42.600;23.476;2023-03-08T07:27:43;5.90;;;3.22;;
67941;SDS011;54731;42.600;23.476;2023-03-08T07:30:09;9.47;;;4.27;;
67941;SDS011;54731;42.600;23.476;2023-03-08T07:32:37;9.43;;;4.20;;
67941;SDS011;54731;42.600;23.476;2023-03-08T07:35:03;7.68;;;3.53;;
67941;SDS011;54731;42.600;23.476;2023-03-08T07:37:29;14.50;;;3.20;;
67941;SDS011;54731;42.600;23.476;2023-03-08T07:39:54;8.63;;;4.13;;
67941;SDS011;54731;42.600;23.476;2023-03-08T07:42:19;12.45;;;3.95;;
67941;SDS011;54731;42.600;23.476;2023-03-08T07:44:44;16.40;;;4.77;;
67941;SDS011;54731;42.600;23.476;2023-03-08T07:47:10;10.67;;;4.50;;
67941;SDS011;54731;42.600;23.476;2023-03-08T07:49:35;9.10;;;3.57;;
67941;SDS011;54731;42.600;23.476;2023-03-08T07:52:01;11.77;;;5.30;;
67941;SDS011;54731;42.600;23.476;2023-03-08T07:54:26;9.10;;;4.80;;
67941;SDS011;54731;42.600;23.476;2023-03-08T07:56:52;10.93;;;5.00;;
67941;SDS011;54731;42.600;23.476;2023-03-08T07:59:18;13.73;;;4.37;;
67941;SDS011;54731;42.600;23.476;2023-03-08T08:01:43;7.85;;;4.30;;
67941;SDS011;54731;42.600;23.476;2023-03-08T08:04:08;8.87;;;4.33;;
67941;SDS011;54731;42.600;23.476;2023-03-08T08:06:34;7.00;;;3.70;;
67941;SDS011;54731;42.600;23.476;2023-03-08T08:09:00;14.20;;;3.97;;
67941;SDS011;54731;42.600;23.476;2023-03-08T08:11:26;11.10;;;4.13;;
67941;SDS011;54731;42.600;23.476;2023-03-08T08:13:51;9.98;;;4.32;;
67941;SDS011;54731;42.600;23.476;2023-03-08T08:16:17;9.85;;;3.88;;
67941;SDS011;54731;42.600;23.476;2023-03-08T08:18:42;5.87;;;2.87;;
67941;SDS011;54731;42.600;23.476;2023-03-08T08:21:09;15.37;;;4.40;;
67941;SDS011;54731;42.600;23.476;2023-03-08T08:23:36;9.65;;;3.95;;
67941;SDS011;54731;42.600;23.476;2023-03-08T08:26:16;7.03;;;2.90;;
67941;SDS011;54731;42.600;23.476;2023-03-08T08:28:43;9.20;;;3.17;;
67941;SDS011;54731;42.600;23.476;2023-03-08T08:31:10;7.80;;;3.05;;
67941;SDS011;54731;42.600;23.476;2023-03-08T08:33:37;8.85;;;3.78;;
67941;SDS011;54731;42.600;23.476;2023-03-08T08:36:06;9.63;;;3.83;;
67941;SDS011;54731;42.600;23.476;2023-03-08T08:38:33;14.38;;;4.38;;
67941;SDS011;54731;42.600;23.476;2023-03-08T08:40:59;21.83;;;6.05;;
67941;SDS011;54731;42.600;23.476;2023-03-08T08:43:27;11.15;;;4.78;;
67941;SDS011;54731;42.600;23.476;2023-03-08T08:45:54;9.38;;;3.78;;
67941;SDS011;54731;42.600;23.476;2023-03-08T08:48:20;9.63;;;3.95;;
67941;SDS011;54731;42.600;23.476;2023-03-08T08:50:46;9.63;;;3.77;;
67941;SDS011;54731;42.600;23.476;2023-03-08T08:53:11;8.17;;;3.83;;
67941;SDS011;54731;42.600;23.476;2023-03-08T08:55:37;8.13;;;3.67;;
67941;SDS011;54731;42.600;23.476;2023-03-08T08:58:02;14.65;;;4.45;;
67941;SDS011;54731;42.600;23.476;2023-03-08T09:00:28;10.00;;;3.90;;
67941;SDS011;54731;42.600;23.476;2023-03-08T09:02:55;9.00;;;3.22;;
67941;SDS011;54731;42.600;23.476;2023-03-08T09:05:20;6.93;;;3.03;;
67941;SDS011;54731;42.600;23.476;2023-03-08T09:31:22;7.60;;;3.80;;
67941;SDS011;54731;42.600;23.476;2023-03-08T09:33:48;13.88;;;3.30;;
67941;SDS011;54731;42.600;23.476;2023-03-08T09:36:14;6.97;;;3.20;;
67941;SDS011;54731;42.600;23.476;2023-03-08T09:38:40;6.67;;;2.83;;
67941;SDS011;54731;42.600;23.476;2023-03-08T09:46:47;8.15;;;3.40;;
67941;SDS011;54731;42.600;23.476;2023-03-08T09:49:27;8.38;;;2.95;;
67941;SDS011;54731;42.600;23.476;2023-03-08T09:55:01;6.45;;;3.03;;
67941;SDS011;54731;42.600;23.476;2023-03-08T10:15:03;8.05;;;3.95;;
67941;SDS011;54731;42.600;23.476;2023-03-08T10:17:39;6.97;;;2.70;;
67941;SDS011;54731;42.600;23.476;2023-03-08T10:20:16;9.65;;;3.95;;
67941;SDS011;54731;42.600;23.476;2023-03-08T10:22:45;7.13;;;2.75;;
67941;SDS011;54731;42.600;23.476;2023-03-08T10:27:40;8.63;;;3.07;;
67941;SDS011;54731;42.600;23.476;2023-03-08T10:30:12;6.60;;;2.73;;
67941;SDS011;54731;42.600;23.476;2023-03-08T10:32:45;4.80;;;2.20;;
67941;SDS011;54731;42.600;23.476;2023-03-08T10:35:13;7.28;;;3.30;;
67941;SDS011;54731;42.600;23.476;2023-03-08T10:37:39;6.50;;;3.03;;
67941;SDS011;54731;42.600;23.476;2023-03-08T10:40:06;8.10;;;3.22;;
67941;SDS011;54731;42.600;23.476;2023-03-08T10:42:42;7.82;;;3.75;;
67941;SDS011;54731;42.600;23.476;2023-03-08T10:45:19;7.65;;;3.25;;
67941;SDS011;54731;42.600;23.476;2023-03-08T10:47:52;6.78;;;3.08;;
67941;SDS011;54731;42.600;23.476;2023-03-08T10:50:24;5.88;;;2.90;;
67941;SDS011;54731;42.600;23.476;2023-03-08T10:52:51;8.30;;;3.38;;
67941;SDS011;54731;42.600;23.476;2023-03-08T10:55:18;9.40;;;3.40;;
67941;SDS011;54731;42.600;23.476;2023-03-08T10:57:49;6.10;;;3.60;;
67941;SDS011;54731;42.600;23.476;2023-03-08T11:05:49;7.65;;;3.45;;
67941;SDS011;54731;42.600;23.476;2023-03-08T11:09:18;5.35;;;2.95;;
67941;SDS011;54731;42.600;23.476;2023-03-08T11:11:20;7.35;;;3.40;;
67941;SDS011;54731;42.600;23.476;2023-03-08T11:13:47;14.07;;;4.53;;
67941;SDS011;54731;42.600;23.476;2023-03-08T11:35:04;8.15;;;4.00;;
67941;SDS011;54731;42.600;23.476;2023-03-08T11:48:58;6.65;;;2.83;;
67941;SDS011;54731;42.600;23.476;2023-03-08T11:56:40;9.43;;;3.72;;
67941;SDS011;54731;42.600;23.476;2023-03-08T12:01:44;8.87;;;3.43;;
67941;SDS011;54731;42.600;23.476;2023-03-08T12:04:14;8.98;;;3.70;;
67941;SDS011;54731;42.600;23.476;2023-03-08T12:06:43;6.40;;;3.00;;
67941;SDS011;54731;42.600;23.476;2023-03-08T12:09:21;6.25;;;3.53;;
67941;SDS011;54731;42.600;23.476;2023-03-08T12:14:43;6.68;;;3.40;;
67941;SDS011;54731;42.600;23.476;2023-03-08T12:17:18;10.18;;;2.65;;
67941;SDS011;54731;42.600;23.476;2023-03-08T12:19:50;7.13;;;2.60;;
67941;SDS011;54731;42.600;23.476;2023-03-08T12:25:11;6.32;;;2.78;;
67941;SDS011;54731;42.600;23.476;2023-03-08T12:33:03;7.90;;;2.70;;
67941;SDS011;54731;42.600;23.476;2023-03-08T12:35:31;7.85;;;2.90;;
67941;SDS011;54731;42.600;23.476;2023-03-08T12:37:59;11.20;;;3.53;;
67941;SDS011;54731;42.600;23.476;2023-03-08T12:43:05;7.10;;;2.97;;
67941;SDS011;54731;42.600;23.476;2023-03-08T12:48:26;10.45;;;2.85;;
67941;SDS011;54731;42.600;23.476;2023-03-08T12:58:33;20.00;;;6.40;;
67941;SDS011;54731;42.600;23.476;2023-03-08T13:01:22;127.72;;;37.67;;
67941;SDS011;54731;42.600;23.476;2023-03-08T13:03:56;20.88;;;7.18;;
67941;SDS011;54731;42.600;23.476;2023-03-08T13:08:49;7.70;;;3.60;;
67941;SDS011;54731;42.600;23.476;2023-03-08T13:11:24;7.35;;;3.35;;
67941;SDS011;54731;42.600;23.476;2023-03-08T13:14:01;5.87;;;3.07;;
67941;SDS011;54731;42.600;23.476;2023-03-08T13:22:15;11.77;;;5.10;;
67941;SDS011;54731;42.600;23.476;2023-03-08T13:24:46;7.80;;;5.38;;
67941;SDS011;54731;42.600;23.476;2023-03-08T13:29:52;8.98;;;3.40;;
67941;SDS011;54731;42.600;23.476;2023-03-08T13:32:18;5.85;;;2.90;;
67941;SDS011;54731;42.600;23.476;2023-03-08T13:35:01;70.45;;;47.08;;
67941;SDS011;54731;42.600;23.476;2023-03-08T13:37:28;74.53;;;57.75;;
67941;SDS011;54731;42.600;23.476;2023-03-08T13:39:55;29.38;;;24.20;;
67941;SDS011;54731;42.600;23.476;2023-03-08T13:42:25;19.15;;;13.75;;
67941;SDS011;54731;42.600;23.476;2023-03-08T13:44:52;10.13;;;5.00;;
67941;SDS011;54731;42.600;23.476;2023-03-08T13:47:30;12.30;;;2.93;;
67941;SDS011;54731;42.600;23.476;2023-03-08T13:49:58;9.68;;;3.97;;
67941;SDS011;54731;42.600;23.476;2023-03-08T13:52:26;14.05;;;7.50;;
67941;SDS011;54731;42.600;23.476;2023-03-08T13:54:55;6.80;;;2.95;;
67941;SDS011;54731;42.600;23.476;2023-03-08T13:57:29;6.55;;;2.38;;
67941;SDS011;54731;42.600;23.476;2023-03-08T13:59:57;7.43;;;2.53;;
67941;SDS011;54731;42.600;23.476;2023-03-08T14:02:26;11.90;;;5.45;;
67941;SDS011;54731;42.600;23.476;2023-03-08T14:04:53;51.67;;;21.50;;
67941;SDS011;54731;42.600;23.476;2023-03-08T14:07:23;25.63;;;11.45;;
67941;SDS011;54731;42.600;23.476;2023-03-08T14:09:52;17.08;;;11.52;;
67941;SDS011;54731;42.600;23.476;2023-03-08T14:12:19;55.27;;;45.67;;
67941;SDS011;54731;42.600;23.476;2023-03-08T14:14:48;24.52;;;19.63;;
67941;SDS011;54731;42.600;23.476;2023-03-08T14:17:19;10.68;;;5.45;;
67941;SDS011;54731;42.600;23.476;2023-03-08T14:19:51;16.60;;;5.53;;
67941;SDS011;54731;42.600;23.476;2023-03-08T14:22:21;6.60;;;3.55;;
67941;SDS011;54731;42.600;23.476;2023-03-08T14:24:48;9.10;;;2.90;;
67941;SDS011;54731;42.600;23.476;2023-03-08T14:29:41;6.93;;;2.20;;
67941;SDS011;54731;42.600;23.476;2023-03-08T14:34:34;9.57;;;5.17;;
67941;SDS011;54731;42.600;23.476;2023-03-08T14:37:04;15.13;;;7.40;;
67941;SDS011;54731;42.600;23.476;2023-03-08T14:39:36;9.25;;;4.10;;
67941;SDS011;54731;42.600;23.476;2023-03-08T14:42:17;9.10;;;4.00;;
67941;SDS011;54731;42.600;23.476;2023-03-08T14:45:00;19.58;;;15.18;;
67941;SDS011;54731;42.600;23.476;2023-03-08T14:47:28;87.78;;;62.53;;
67941;SDS011;54731;42.600;23.476;2023-03-08T14:49:56;34.40;;;26.15;;
67941;SDS011;54731;42.600;23.476;2023-03-08T14:52:26;9.68;;;4.28;;
67941;SDS011;54731;42.600;23.476;2023-03-08T14:54:53;7.32;;;4.00;;
67941;SDS011;54731;42.600;23.476;2023-03-08T14:57:23;10.05;;;3.05;;
67941;SDS011;54731;42.600;23.476;2023-03-08T14:59:53;14.82;;;9.00;;
67941;SDS011;54731;42.600;23.476;2023-03-08T15:02:26;29.27;;;18.88;;
67941;SDS011;54731;42.600;23.476;2023-03-08T15:04:51;41.27;;;30.03;;
67941;SDS011;54731;42.600;23.476;2023-03-08T15:07:18;15.53;;;8.30;;
67941;SDS011;54731;42.600;23.476;2023-03-08T15:09:45;10.52;;;3.70;;
67941;SDS011;54731;42.600;23.476;2023-03-08T15:12:12;9.80;;;5.43;;
67941;SDS011;54731;42.600;23.476;2023-03-08T15:14:38;37.60;;;17.10;;
67941;SDS011;54731;42.600;23.476;2023-03-08T15:17:03;24.20;;;11.43;;
67941;SDS011;54731;42.600;23.476;2023-03-08T15:19:28;6.57;;;3.40;;
67941;SDS011;54731;42.600;23.476;2023-03-08T15:21:54;2.33;;;1.40;;
67941;SDS011;54731;42.600;23.476;2023-03-08T15:24:19;3.53;;;2.00;;
67941;SDS011;54731;42.600;23.476;2023-03-08T15:26:45;28.08;;;24.42;;
67941;SDS011;54731;42.600;23.476;2023-03-08T15:29:27;11.20;;;8.07;;
67941;SDS011;54731;42.600;23.476;2023-03-08T15:31:55;6.20;;;3.63;;
67941;SDS011;54731;42.600;23.476;2023-03-08T15:34:21;5.68;;;1.33;;
67941;SDS011;54731;42.600;23.476;2023-03-08T15:36:48;4.13;;;1.70;;
67941;SDS011;54731;42.600;23.476;2023-03-08T15:39:14;4.00;;;2.10;;
67941;SDS011;54731;42.600;23.476;2023-03-08T15:41:39;6.47;;;3.87;;
67941;SDS011;54731;42.600;23.476;2023-03-08T15:44:05;2.50;;;1.33;;
67941;SDS011;54731;42.600;23.476;2023-03-08T15:46:31;3.67;;;1.73;;
67941;SDS011;54731;42.600;23.476;2023-03-08T15:48:56;3.40;;;1.37;;
67941;SDS011;54731;42.600;23.476;2023-03-08T15:51:23;3.10;;;1.83;;
67941;SDS011;54731;42.600;23.476;2023-03-08T15:53:52;3.80;;;2.30;;
67941;SDS011;54731;42.600;23.476;2023-03-08T15:56:18;5.53;;;2.90;;
67941;SDS011;54731;42.600;23.476;2023-03-08T15:58:43;5.88;;;2.70;;
67941;SDS011;54731;42.600;23.476;2023-03-08T16:01:09;22.20;;;10.30;;
67941;SDS011;54731;42.600;23.476;2023-03-08T16:03:34;53.70;;;32.07;;
67941;SDS011;54731;42.600;23.476;2023-03-08T16:06:00;92.47;;;61.37;;
67941;SDS011;54731;42.600;23.476;2023-03-08T16:08:26;9.27;;;4.85;;
67941;SDS011;54731;42.600;23.476;2023-03-08T16:10:52;45.65;;;33.55;;
67941;SDS011;54731;42.600;23.476;2023-03-08T16:13:17;26.13;;;14.93;;
67941;SDS011;54731;42.600;23.476;2023-03-08T16:15:44;21.27;;;8.63;;
67941;SDS011;54731;42.600;23.476;2023-03-08T16:18:09;8.45;;;4.13;;
67941;SDS011;54731;42.600;23.476;2023-03-08T16:20:35;12.48;;;6.80;;
67941;SDS011;54731;42.600;23.476;2023-03-08T16:23:03;13.20;;;5.15;;
67941;SDS011;54731;42.600;23.476;2023-03-08T16:25:29;232.18;;;82.97;;
67941;SDS011;54731;42.600;23.476;2023-03-08T16:27:54;231.63;;;83.23;;
67941;SDS011;54731;42.600;23.476;2023-03-08T16:30:19;101.50;;;36.80;;
67941;SDS011;54731;42.600;23.476;2023-03-08T16:32:45;14.60;;;6.00;;
67941;SDS011;54731;42.600;23.476;2023-03-08T16:35:10;271.67;;;87.10;;
67941;SDS011;54731;42.600;23.476;2023-03-08T16:37:35;450.80;;;151.67;;
67941;SDS011;54731;42.600;23.476;2023-03-08T16:40:01;720.53;;;284.08;;
67941;SDS011;54731;42.600;23.476;2023-03-08T16:42:27;70.07;;;23.13;;
67941;SDS011;54731;42.600;23.476;2023-03-08T16:44:54;238.63;;;67.72;;
67941;SDS011;54731;42.600;23.476;2023-03-08T16:47:20;157.10;;;45.22;;
67941;SDS011;54731;42.600;23.476;2023-03-08T16:49:46;350.35;;;106.25;;
67941;SDS011;54731;42.600;23.476;2023-03-08T16:52:12;370.57;;;117.47;;
67941;SDS011;54731;42.600;23.476;2023-03-08T16:54:38;322.33;;;103.55;;